createdAt,value
2017-03-18T12:08:11.677Z,14.20
2017-03-18T12:09:11.355Z,13.32
2017-03-18T12:10:10.828Z,14.05
2017-03-18T12:11:10.088Z,13.50
2017-03-18T12:12:09.346Z,11.73
2017-03-18T12:13:09.936Z,12.53
2017-03-18T12:14:09.357Z,11.82
2017-03-18T12:15:08.387Z,12.42
2017-03-18T12:16:08.011Z,10.55
2017-03-18T12:17:07.158Z,10.73
2017-03-18T12:18:06.287Z,10.42
2017-03-18T12:19:05.358Z,10.48
2017-03-18T12:20:04.312Z,10.55
2017-03-18T12:21:03.592Z,9.17
2017-03-18T12:22:02.682Z,9.15
2017-03-18T12:23:01.638Z,8.33
2017-03-18T12:24:00.570Z,8.83
2017-03-18T12:24:59.552Z,9.10
2017-03-18T12:25:58.614Z,8.00
2017-03-18T12:26:57.543Z,7.43
2017-03-18T12:27:56.541Z,7.67
2017-03-18T12:28:55.555Z,7.50
2017-03-18T12:29:54.984Z,7.47
2017-03-18T12:30:53.444Z,7.30
2017-03-18T12:31:52.424Z,7.43
2017-03-18T12:32:51.208Z,6.75
2017-03-18T12:33:50.383Z,7.03
2017-03-18T12:34:49.546Z,6.48
2017-03-18T12:35:48.862Z,6.18
2017-03-18T12:36:48.276Z,6.75
2017-03-18T12:37:48.135Z,6.05
2017-03-18T12:38:51.552Z,6.50
2017-03-18T12:39:51.656Z,6.25
2017-03-18T12:40:50.964Z,5.95
2017-03-18T12:41:50.252Z,5.87
2017-03-18T12:42:49.484Z,5.95
2017-03-18T12:43:48.832Z,5.32
2017-03-18T12:44:48.084Z,5.15
2017-03-18T12:45:47.707Z,4.50
2017-03-18T12:46:47.244Z,4.72
2017-03-18T12:47:46.334Z,5.55
2017-03-18T12:48:45.731Z,4.93
2017-03-18T12:49:45.034Z,5.15
2017-03-18T12:50:44.676Z,4.83
2017-03-18T12:51:43.120Z,5.55
2017-03-18T12:52:42.299Z,4.18
2017-03-18T12:53:41.455Z,5.08
2017-03-18T12:54:40.713Z,4.13
2017-03-18T12:55:39.768Z,4.77
2017-03-18T12:56:40.522Z,5.02
2017-03-18T12:57:39.921Z,4.70
2017-03-18T12:58:39.070Z,4.67
2017-03-18T12:59:38.243Z,4.67
2017-03-18T13:00:37.080Z,4.65
2017-03-18T13:01:36.400Z,4.65
2017-03-18T13:02:35.918Z,4.20
2017-03-18T13:03:34.939Z,4.10
2017-03-18T13:04:34.213Z,4.02
2017-03-18T13:05:33.204Z,3.72
2017-03-18T13:06:32.748Z,3.63
2017-03-18T13:07:32.455Z,4.10
2017-03-18T13:08:31.701Z,4.10
2017-03-18T13:09:30.714Z,5.93
2017-03-18T13:10:29.643Z,17.87
2017-03-18T13:11:28.729Z,17.05
2017-03-18T13:12:27.613Z,14.62
2017-03-18T13:13:26.631Z,15.53
2017-03-18T13:14:25.695Z,14.38
2017-03-18T13:15:24.560Z,16.05
2017-03-18T13:16:23.602Z,20.40
2017-03-18T13:17:22.581Z,22.43
2017-03-18T13:18:21.506Z,21.30
2017-03-18T13:19:20.502Z,21.33
2017-03-18T13:20:20.185Z,20.53
2017-03-18T13:21:19.955Z,20.52
2017-03-18T13:22:18.971Z,20.95
2017-03-18T13:23:18.067Z,18.70
2017-03-18T13:24:17.009Z,19.63
2017-03-18T13:25:16.376Z,20.40
2017-03-18T13:26:15.552Z,18.38
2017-03-18T13:27:15.593Z,17.88
2017-03-18T13:28:14.707Z,17.53
2017-03-18T13:29:13.709Z,16.60
2017-03-18T13:30:13.607Z,17.82
2017-03-18T13:31:12.674Z,16.85
2017-03-18T13:32:11.547Z,17.65
2017-03-18T13:33:11.692Z,17.60
2017-03-18T13:34:11.039Z,15.82
2017-03-18T13:35:09.962Z,16.57
2017-03-18T13:36:08.618Z,14.52
2017-03-18T13:37:07.250Z,15.80
2017-03-18T13:38:05.848Z,14.85
2017-03-18T13:39:05.702Z,14.97
2017-03-18T13:40:05.082Z,15.32
2017-03-18T13:41:04.324Z,14.98
2017-03-18T13:42:02.901Z,14.55
2017-03-18T13:43:01.589Z,13.20
2017-03-18T13:44:00.200Z,14.15
2017-03-18T13:44:59.064Z,13.85
2017-03-18T13:45:58.117Z,13.82
2017-03-18T13:46:57.761Z,13.68
2017-03-18T13:47:56.318Z,13.27
2017-03-18T13:48:54.948Z,13.67
2017-03-18T13:49:54.268Z,12.75
2017-03-18T13:50:52.880Z,13.43
2017-03-18T13:51:52.614Z,13.22
2017-03-18T13:52:51.302Z,12.95
2017-03-18T13:53:50.002Z,13.17
2017-03-18T13:54:49.160Z,12.32
2017-03-18T13:55:48.169Z,12.90
2017-03-18T13:56:46.833Z,11.97
2017-03-18T13:57:45.608Z,12.52
2017-03-18T13:58:44.275Z,12.62
2017-03-18T13:59:43.670Z,12.10
2017-03-18T14:00:42.650Z,11.83
2017-03-18T14:01:41.647Z,11.83
2017-03-18T14:02:40.876Z,11.88
2017-03-18T14:03:40.132Z,11.78
2017-03-18T14:04:38.967Z,11.15
2017-03-18T14:05:38.079Z,10.82
2017-03-18T14:06:37.412Z,10.75
2017-03-18T14:07:36.506Z,10.98
2017-03-18T14:08:37.186Z,10.63
2017-03-18T14:09:36.299Z,10.10
2017-03-18T14:10:35.498Z,9.92
2017-03-18T14:11:34.746Z,10.30
2017-03-18T14:12:34.123Z,11.37
2017-03-18T14:13:33.198Z,10.33
2017-03-18T14:14:34.061Z,11.12
2017-03-18T14:15:33.465Z,11.05
2017-03-18T14:16:33.189Z,10.40
2017-03-18T14:17:32.343Z,9.80
2017-03-18T14:18:31.335Z,9.85
2017-03-18T14:19:30.289Z,10.10
2017-03-18T14:20:30.442Z,9.65
2017-03-18T14:21:29.545Z,10.07
2017-03-18T14:22:28.803Z,8.43
2017-03-18T14:23:28.081Z,8.43
2017-03-18T14:24:27.382Z,8.52
2017-03-18T14:25:26.548Z,9.72
2017-03-18T14:26:25.144Z,7.98
2017-03-18T14:27:24.278Z,8.10
2017-03-18T14:28:23.544Z,8.25
2017-03-18T14:29:22.836Z,8.10
2017-03-18T14:30:21.919Z,8.30
2017-03-18T14:31:21.123Z,8.63
2017-03-18T14:32:20.278Z,8.05
2017-03-18T14:33:19.475Z,6.83
2017-03-18T14:34:19.367Z,8.50
2017-03-18T14:35:18.326Z,7.63
2017-03-18T14:36:17.502Z,7.85
2017-03-18T14:37:17.958Z,7.28
2017-03-18T14:38:19.382Z,7.35
2017-03-18T14:39:19.395Z,7.30
2017-03-18T14:40:18.530Z,6.82
2017-03-18T14:41:21.759Z,6.68
2017-03-18T14:42:20.727Z,6.85
2017-03-18T14:43:19.674Z,7.13
2017-03-18T14:44:21.033Z,6.58
2017-03-18T14:45:19.962Z,6.82
2017-03-18T14:46:19.066Z,6.58
2017-03-18T14:47:18.132Z,7.02
2017-03-18T14:48:17.357Z,6.12
2017-03-18T14:49:17.002Z,6.05
2017-03-18T14:50:16.289Z,6.80
2017-03-18T14:51:15.543Z,6.32
2017-03-18T14:52:15.627Z,6.57
2017-03-18T14:53:14.677Z,6.50
2017-03-18T14:54:13.782Z,7.00
2017-03-18T14:55:13.049Z,6.50
2017-03-18T14:56:12.160Z,5.60
2017-03-18T14:57:11.103Z,5.87
2017-03-18T14:58:10.091Z,5.62
2017-03-18T14:59:09.247Z,5.87
2017-03-18T15:00:08.536Z,5.75
2017-03-18T15:01:07.650Z,6.75
2017-03-18T15:02:06.522Z,6.37
2017-03-18T15:03:05.511Z,6.27
2017-03-18T15:04:04.732Z,6.40
2017-03-18T15:05:03.774Z,6.33
2017-03-18T15:06:03.383Z,6.33
2017-03-18T15:07:02.368Z,5.58
2017-03-18T15:08:01.604Z,5.43
2017-03-18T15:09:00.807Z,5.87
2017-03-18T15:10:01.818Z,6.42
2017-03-18T15:11:01.104Z,5.38
2017-03-18T15:12:00.358Z,6.03
2017-03-18T15:12:59.341Z,6.15
2017-03-18T15:13:58.619Z,5.87
2017-03-18T15:14:57.862Z,5.92
2017-03-18T15:15:56.892Z,6.23
2017-03-18T15:16:55.885Z,6.20
2017-03-18T15:17:54.864Z,5.65
2017-03-18T15:18:54.052Z,5.33
2017-03-18T15:19:53.149Z,5.25
2017-03-18T15:20:52.443Z,5.67
2017-03-18T15:21:51.557Z,6.02
2017-03-18T15:22:51.104Z,5.42
2017-03-18T15:23:51.078Z,5.33
2017-03-18T15:24:50.204Z,5.37
2017-03-18T15:25:49.748Z,5.13
2017-03-18T15:26:48.839Z,5.63
2017-03-18T15:27:47.773Z,5.77
2017-03-18T15:28:47.399Z,5.32
2017-03-18T15:29:52.440Z,5.98
2017-03-18T15:30:52.912Z,4.72
2017-03-18T15:31:52.300Z,5.17
2017-03-18T15:32:52.204Z,4.67
2017-03-18T15:33:52.697Z,5.32
2017-03-18T15:34:51.867Z,4.83
2017-03-18T15:35:51.135Z,4.98
2017-03-18T15:36:50.478Z,5.40
2017-03-18T15:37:49.844Z,5.26
2017-03-18T15:39:22.126Z,5.45
2017-03-18T15:43:25.867Z,5.23
2017-03-18T15:44:25.122Z,5.42
2017-03-18T15:45:24.034Z,5.65
2017-03-18T16:06:11.323Z,4.82
2017-03-18T16:07:10.343Z,4.98
2017-03-18T16:24:05.018Z,3.88
2017-03-18T16:25:04.403Z,3.95
2017-03-18T16:29:15.685Z,3.58
2017-03-18T16:30:15.621Z,3.60
2017-03-18T16:31:14.850Z,3.88
2017-03-18T16:32:14.148Z,3.52
2017-03-18T16:33:13.805Z,4.05
2017-03-18T16:34:13.158Z,3.37
2017-03-18T16:35:15.388Z,4.05
2017-03-18T16:36:14.416Z,3.43
2017-03-18T16:37:13.725Z,3.38
2017-03-18T16:38:14.113Z,3.95
2017-03-18T16:39:13.498Z,3.37
2017-03-18T16:40:12.820Z,3.05
2017-03-18T16:41:11.807Z,4.05
2017-03-18T16:42:11.122Z,3.27
2017-03-18T16:43:10.081Z,3.63
2017-03-18T16:44:09.406Z,3.70
2017-03-18T16:45:08.657Z,3.37
2017-03-18T16:46:08.031Z,3.38
2017-03-18T16:47:07.802Z,3.18
2017-03-18T16:48:07.139Z,3.52
2017-03-18T16:49:06.399Z,3.30
2017-03-18T16:50:07.409Z,4.03
2017-03-18T16:51:06.865Z,3.62
2017-03-18T16:52:05.979Z,15.48
2017-03-18T16:54:15.934Z,3.28
2017-03-18T16:55:14.769Z,4.37
2017-03-18T16:56:13.849Z,3.68
2017-03-18T16:57:12.878Z,4.13
2017-03-18T16:58:11.905Z,3.25
2017-03-18T16:59:12.541Z,3.55
2017-03-18T17:00:11.529Z,3.90
2017-03-18T17:01:10.775Z,3.97
2017-03-18T17:02:09.931Z,3.02
2017-03-18T17:03:08.932Z,3.48
2017-03-18T17:04:07.737Z,3.43
2017-03-18T17:05:06.601Z,3.02
2017-03-18T17:06:05.706Z,4.08
2017-03-18T17:07:05.871Z,3.05
2017-03-18T17:08:04.906Z,4.12
2017-03-18T17:09:04.321Z,3.35
2017-03-18T17:13:58.113Z,3.57
2017-03-18T17:15:01.843Z,3.60
2017-03-18T17:16:13.867Z,3.40
2017-03-18T17:17:25.761Z,3.32
2017-03-18T17:18:25.261Z,3.05
2017-03-18T17:19:24.271Z,3.20
2017-03-18T17:20:23.399Z,3.35
2017-03-18T17:21:22.709Z,2.60
2017-03-18T17:45:02.371Z,3.48
2017-03-18T17:46:01.335Z,3.15
2017-03-18T17:47:00.261Z,2.93
2017-03-18T17:47:59.188Z,2.72
2017-03-18T17:48:58.307Z,3.00
2017-03-18T17:49:58.807Z,2.60
2017-03-18T17:50:59.435Z,3.37
2017-03-18T17:57:12.134Z,3.40
2017-03-18T17:58:11.959Z,3.80
2017-03-18T17:59:12.011Z,3.44
2017-03-18T18:00:11.302Z,3.70
2017-03-18T18:01:10.870Z,3.35
2017-03-18T18:02:11.109Z,3.85
2017-03-18T18:03:11.142Z,3.77
2017-03-18T18:04:10.418Z,3.48
2017-03-18T18:05:10.822Z,3.08
2017-03-18T18:06:10.112Z,3.18
2017-03-18T18:07:09.386Z,3.10
2017-03-18T18:08:08.680Z,3.53
2017-03-18T18:09:07.781Z,3.62
2017-03-18T18:10:07.675Z,3.60
2017-03-18T18:11:06.824Z,3.42
2017-03-18T18:12:07.132Z,4.03
2017-03-18T18:13:06.636Z,3.37
2017-03-18T18:14:05.967Z,3.62
2017-03-18T18:15:05.109Z,3.32
2017-03-18T18:16:03.952Z,2.98
2017-03-18T18:17:03.071Z,2.95
2017-03-18T18:18:03.110Z,3.60
2017-03-18T18:19:02.280Z,2.70
2017-03-18T18:20:01.706Z,2.43
2017-03-18T18:21:00.957Z,3.10
2017-03-18T18:22:00.285Z,2.77
2017-03-18T18:22:59.882Z,3.50
2017-03-18T18:23:59.008Z,3.38
2017-03-18T18:24:57.844Z,2.58
2017-03-18T18:25:56.875Z,3.25
2017-03-18T18:26:55.817Z,2.68
2017-03-18T18:27:54.460Z,3.40
2017-03-18T18:28:53.545Z,2.90
2017-03-18T18:29:52.755Z,2.65
2017-03-18T18:30:51.844Z,2.40
2017-03-18T18:31:52.035Z,2.60
2017-03-18T18:32:51.331Z,2.73
2017-03-18T18:33:50.656Z,3.32
2017-03-18T18:34:50.709Z,3.42
2017-03-18T18:35:51.572Z,2.38
2017-03-18T18:36:51.085Z,3.33
2017-03-18T18:37:50.694Z,2.73
2017-03-18T18:38:49.430Z,3.00
2017-03-18T18:39:48.613Z,2.83
2017-03-18T18:40:48.134Z,2.80
2017-03-18T18:41:48.163Z,2.35
2017-03-18T18:42:47.220Z,2.30
2017-03-18T18:43:46.281Z,2.27
2017-03-18T18:44:45.228Z,2.53
2017-03-18T18:45:44.442Z,3.00
2017-03-18T18:46:43.932Z,2.10
2017-03-18T18:47:43.043Z,2.47
2017-03-18T18:48:42.120Z,3.43
2017-03-18T18:49:41.579Z,4.50
2017-03-18T18:50:40.711Z,4.77
2017-03-18T18:51:40.153Z,5.50
2017-03-18T18:52:39.482Z,3.58
2017-03-18T18:53:39.410Z,3.57
2017-03-18T18:54:38.569Z,3.78
2017-03-18T18:55:37.780Z,3.38
2017-03-18T18:56:37.190Z,3.22
2017-03-18T18:57:36.400Z,3.20
2017-03-18T18:58:35.515Z,3.33
2017-03-18T18:59:35.104Z,3.37
2017-03-18T19:00:34.124Z,3.22
2017-03-18T19:01:33.636Z,3.25
2017-03-18T19:02:32.781Z,2.80
2017-03-18T19:03:32.609Z,2.77
2017-03-18T19:04:32.155Z,3.08
2017-03-18T19:05:31.802Z,2.97
2017-03-18T19:06:31.204Z,3.02
2017-03-18T19:07:30.692Z,3.10
2017-03-18T19:08:30.549Z,2.73
2017-03-18T19:09:29.737Z,2.83
2017-03-18T19:10:29.041Z,2.53
2017-03-18T19:11:28.254Z,3.63
2017-03-18T19:12:29.537Z,3.00
2017-03-18T19:13:28.548Z,2.90
2017-03-18T19:14:27.761Z,2.73
2017-03-18T19:15:28.494Z,2.93
2017-03-18T19:16:27.536Z,2.97
2017-03-18T19:17:26.967Z,3.45
2017-03-18T19:18:26.326Z,3.68
2017-03-18T19:19:26.039Z,3.12
2017-03-18T19:20:25.291Z,2.70
2017-03-18T19:21:26.582Z,2.72
2017-03-18T19:22:26.474Z,2.53
2017-03-18T19:23:25.353Z,3.05
2017-03-18T19:24:25.150Z,2.93
2017-03-18T19:25:24.001Z,2.57
2017-03-18T19:26:23.483Z,2.57
2017-03-18T19:27:22.107Z,2.38
2017-03-18T19:28:21.130Z,2.63
2017-03-18T19:29:20.259Z,2.50
2017-03-18T19:30:19.575Z,3.12
2017-03-18T19:31:18.719Z,2.63
2017-03-18T19:32:17.868Z,2.43
2017-03-18T19:33:16.541Z,2.67
2017-03-18T19:34:15.352Z,2.98
2017-03-18T19:35:14.090Z,2.45
2017-03-18T19:36:12.960Z,2.80
2017-03-18T19:37:12.452Z,3.42
2017-03-18T19:38:11.193Z,3.00
2017-03-18T19:39:09.916Z,3.07
2017-03-18T19:40:09.710Z,2.98
2017-03-18T19:41:08.950Z,3.27
2017-03-18T19:42:08.437Z,2.67
2017-03-18T19:43:07.601Z,3.93
2017-03-18T19:44:06.334Z,4.12
2017-03-18T19:45:05.219Z,4.38
2017-03-18T19:46:04.105Z,3.78
2017-03-18T19:47:05.874Z,3.90
2017-03-18T19:48:05.092Z,4.12
2017-03-18T19:49:04.176Z,3.48
2017-03-18T19:50:04.101Z,3.82
2017-03-18T19:51:03.274Z,3.28
2017-03-18T19:52:02.565Z,3.43
2017-03-18T19:53:02.369Z,3.27
2017-03-18T19:54:01.443Z,4.68
2017-03-18T19:55:02.596Z,3.57
2017-03-18T19:56:02.509Z,3.18
2017-03-18T19:57:01.792Z,3.78
2017-03-18T19:58:03.160Z,3.85
2017-03-18T19:59:03.287Z,3.30
2017-03-18T20:00:02.514Z,3.72
2017-03-18T20:01:01.724Z,4.00
2017-03-18T20:02:01.258Z,3.50
2017-03-18T20:03:01.361Z,3.88
2017-03-18T20:04:00.848Z,4.12
2017-03-18T20:05:00.093Z,4.53
2017-03-18T20:05:59.203Z,3.48
2017-03-18T20:06:58.581Z,3.85
2017-03-18T20:07:57.531Z,3.40
2017-03-18T20:08:58.097Z,4.15
2017-03-18T20:09:57.135Z,3.88
2017-03-18T20:10:56.179Z,3.45
2017-03-18T20:11:56.816Z,3.98
2017-03-18T20:12:56.888Z,3.93
2017-03-18T20:13:57.483Z,3.82
2017-03-18T20:14:57.807Z,3.10
2017-03-18T20:15:58.955Z,3.58
2017-03-18T20:16:58.916Z,3.48
2017-03-18T20:17:58.375Z,3.68
2017-03-18T20:18:57.462Z,3.30
2017-03-18T20:19:56.626Z,3.93
2017-03-18T20:20:55.790Z,3.65
2017-03-18T20:21:54.867Z,3.55
2017-03-18T20:22:53.952Z,3.73
2017-03-18T20:23:52.977Z,3.68
2017-03-18T20:24:52.099Z,3.58
2017-03-18T20:25:51.382Z,3.60
2017-03-18T20:26:50.510Z,2.98
2017-03-18T20:27:49.706Z,3.67
2017-03-18T20:28:48.719Z,3.57
2017-03-18T20:29:48.206Z,3.88
2017-03-18T20:30:47.125Z,3.28
2017-03-18T20:31:46.130Z,3.97
2017-03-18T20:32:46.341Z,3.82
2017-03-18T20:33:45.611Z,3.25
2017-03-18T20:34:45.379Z,3.23
2017-03-18T20:35:44.684Z,2.95
2017-03-18T20:36:43.718Z,3.23
2017-03-18T20:37:43.229Z,3.02
2017-03-18T20:38:42.870Z,3.17
2017-03-18T20:39:42.185Z,3.55
2017-03-18T20:40:41.322Z,4.13
2017-03-18T20:41:40.493Z,3.15
2017-03-18T20:42:40.149Z,3.07
2017-03-18T20:43:40.264Z,3.18
2017-03-18T20:44:39.441Z,2.93
2017-03-18T20:45:39.905Z,2.75
2017-03-18T20:46:40.254Z,3.07
2017-03-18T20:47:41.392Z,3.67
2017-03-18T20:48:41.324Z,3.32
2017-03-18T20:49:42.067Z,3.60
2017-03-18T20:50:41.331Z,3.32
2017-03-18T20:51:41.209Z,4.10
2017-03-18T20:52:40.455Z,3.38
2017-03-18T20:53:40.937Z,3.22
2017-03-18T20:54:42.866Z,3.47
2017-03-18T20:55:43.112Z,4.02
2017-03-18T20:56:42.973Z,3.70
2017-03-18T20:57:43.144Z,3.87
2017-03-18T20:58:46.017Z,3.45
2017-03-18T20:59:46.055Z,3.47
2017-03-18T21:00:47.541Z,3.40
2017-03-18T21:01:47.352Z,4.05
2017-03-18T21:02:47.497Z,3.30
2017-03-18T21:03:47.831Z,3.02
2017-03-18T21:04:47.558Z,3.80
2017-03-18T21:05:48.129Z,3.82
2017-03-18T21:06:47.939Z,4.27
2017-03-18T21:07:49.116Z,3.53
2017-03-18T21:08:50.622Z,3.88
2017-03-18T21:09:52.140Z,3.12
2017-03-18T21:10:52.660Z,4.07
2017-03-18T21:11:52.334Z,3.35
2017-03-18T21:12:52.781Z,3.92
2017-03-18T21:13:53.357Z,3.57
2017-03-18T21:14:53.434Z,3.35
2017-03-18T21:15:53.384Z,3.73
2017-03-18T21:16:53.047Z,3.93
2017-03-18T21:17:54.148Z,4.15
2017-03-18T21:18:55.518Z,4.10
2017-03-18T21:19:55.375Z,4.60
2017-03-18T21:20:54.939Z,3.85
2017-03-18T21:21:55.963Z,3.23
2017-03-18T21:22:55.633Z,3.52
2017-03-18T21:23:56.267Z,4.22
2017-03-18T21:24:57.476Z,3.78
2017-03-18T21:25:57.295Z,4.05
2017-03-18T21:26:56.801Z,3.63
2017-03-18T21:27:56.835Z,3.55
2017-03-18T21:28:57.838Z,3.52
2017-03-18T21:29:57.764Z,4.17
2017-03-18T21:30:58.221Z,3.65
2017-03-18T21:31:58.787Z,3.82
2017-03-18T21:32:58.791Z,4.73
2017-03-18T21:34:00.327Z,4.18
2017-03-18T21:35:00.743Z,3.83
2017-03-18T21:36:01.029Z,4.40
2017-03-18T21:37:01.258Z,4.07
2017-03-18T21:38:01.394Z,3.82
2017-03-18T21:39:01.789Z,5.13
2017-03-18T21:40:00.988Z,4.65
2017-03-18T21:41:44.229Z,4.30
2017-03-18T21:42:43.557Z,3.70
2017-03-18T21:43:43.749Z,3.92
2017-03-18T21:44:42.898Z,4.17
2017-03-18T21:45:42.078Z,4.07
2017-03-18T21:46:41.121Z,3.75
2017-03-18T21:47:40.199Z,3.70
2017-03-18T21:48:39.184Z,3.87
2017-03-18T21:49:38.293Z,3.75
2017-03-18T21:50:37.295Z,3.22
2017-03-18T21:51:37.201Z,3.58
2017-03-18T21:52:37.504Z,3.48
2017-03-18T21:53:36.568Z,3.68
2017-03-18T21:54:36.183Z,3.28
2017-03-18T21:55:35.127Z,3.47
2017-03-18T21:56:33.992Z,4.13
2017-03-18T21:57:32.762Z,3.53
2017-03-18T21:58:32.065Z,3.50
2017-03-18T21:59:31.699Z,2.78
2017-03-18T22:00:30.676Z,2.93
2017-03-18T22:01:33.567Z,2.92
2017-03-18T22:02:32.448Z,2.93
2017-03-18T22:03:32.005Z,2.83
2017-03-18T22:04:30.892Z,3.65
2017-03-18T22:05:29.783Z,2.70
2017-03-18T22:06:28.719Z,3.55
2017-03-18T22:07:29.346Z,3.82
2017-03-18T22:08:28.239Z,3.65
2017-03-18T22:09:27.690Z,2.90
2017-03-18T22:10:26.618Z,3.37
2017-03-18T22:11:25.543Z,2.87
2017-03-18T22:12:24.440Z,3.23
2017-03-18T22:13:23.387Z,3.43
2017-03-18T22:14:22.228Z,3.07
2017-03-18T22:15:21.793Z,3.10
2017-03-18T22:16:20.719Z,2.92
2017-03-18T22:17:19.592Z,3.30
2017-03-18T22:18:20.083Z,3.05
2017-03-18T22:19:18.915Z,2.80
2017-03-18T22:20:17.788Z,2.98
2017-03-18T22:21:17.944Z,2.97
2017-03-18T22:22:16.857Z,3.22
2017-03-18T22:23:15.891Z,2.47
2017-03-18T22:24:16.022Z,3.12
2017-03-18T22:25:14.983Z,2.62
2017-03-18T22:26:15.737Z,2.92
2017-03-18T22:27:14.585Z,3.17
2017-03-18T22:28:13.435Z,3.07
2017-03-18T22:29:12.334Z,2.93
2017-03-18T22:30:12.175Z,2.87
2017-03-18T22:31:11.115Z,2.90
2017-03-18T22:32:10.006Z,3.00
2017-03-18T22:33:08.963Z,3.23
2017-03-18T22:34:08.910Z,2.90
2017-03-18T22:35:07.853Z,3.63
2017-03-18T22:36:06.767Z,2.88
2017-03-18T22:37:06.415Z,2.93
2017-03-18T22:38:05.375Z,3.08
2017-03-18T22:39:04.632Z,3.47
2017-03-18T22:40:13.115Z,2.55
2017-03-18T22:41:12.077Z,2.73
2017-03-18T22:42:14.759Z,2.75
2017-03-18T22:43:13.797Z,3.12
2017-03-18T22:44:12.794Z,3.05
2017-03-18T22:45:11.962Z,2.42
2017-03-18T22:46:10.860Z,2.45
2017-03-18T22:47:09.735Z,2.72
2017-03-18T22:48:08.470Z,2.45
2017-03-18T22:49:08.966Z,2.87
2017-03-18T22:50:07.922Z,3.20
2017-03-18T22:51:06.767Z,2.72
2017-03-18T22:52:06.122Z,2.30
2017-03-18T22:53:04.852Z,2.85
2017-03-18T22:54:03.789Z,3.08
2017-03-18T22:55:03.191Z,2.20
2017-03-18T22:56:02.025Z,3.05
2017-03-18T22:57:00.947Z,2.50
2017-03-18T22:57:59.667Z,2.72
2017-03-18T22:58:58.245Z,2.73
2017-03-18T22:59:56.056Z,2.57
2017-03-18T23:00:54.674Z,2.33
2017-03-18T23:01:54.104Z,2.72
2017-03-18T23:02:52.681Z,2.47
2017-03-18T23:03:54.946Z,2.82
2017-03-18T23:04:53.512Z,2.55
2017-03-18T23:05:52.071Z,3.15
2017-03-18T23:06:50.658Z,2.63
2017-03-18T23:07:49.617Z,2.48
2017-03-18T23:08:48.256Z,2.02
2017-03-18T23:09:46.834Z,2.75
2017-03-18T23:10:45.407Z,2.97
2017-03-18T23:11:44.867Z,2.58
2017-03-18T23:12:43.461Z,2.27
2017-03-18T23:13:42.072Z,2.60
2017-03-18T23:14:40.664Z,2.50
2017-03-18T23:15:39.253Z,2.20
2017-03-18T23:16:38.738Z,2.60
2017-03-18T23:17:37.307Z,2.52
2017-03-18T23:18:35.918Z,2.00
2017-03-18T23:19:34.519Z,2.65
2017-03-18T23:20:33.079Z,2.93
2017-03-18T23:21:31.639Z,2.62
2017-03-18T23:22:32.267Z,2.70
2017-03-18T23:23:30.831Z,2.20
2017-03-18T23:24:29.400Z,2.38
2017-03-18T23:25:27.992Z,2.77
2017-03-18T23:26:26.551Z,2.73
2017-03-18T23:27:25.111Z,2.63
2017-03-18T23:28:23.755Z,2.55
2017-03-18T23:29:22.299Z,2.42
2017-03-18T23:30:21.624Z,2.28
2017-03-18T23:31:20.202Z,2.45
2017-03-18T23:32:18.746Z,2.83
2017-03-18T23:33:17.311Z,2.40
2017-03-18T23:34:17.816Z,2.38
2017-03-18T23:35:17.123Z,2.53
2017-03-18T23:36:16.430Z,3.05
2017-03-18T23:37:16.012Z,2.37
2017-03-18T23:38:14.587Z,2.65
2017-03-18T23:39:13.143Z,2.53
2017-03-18T23:40:11.702Z,2.33
2017-03-18T23:41:10.277Z,2.68
2017-03-18T23:42:20.927Z,2.30
2017-03-18T23:43:21.440Z,1.90
2017-03-18T23:44:20.009Z,2.52
2017-03-18T23:45:27.848Z,2.63
2017-03-18T23:46:29.340Z,2.50
2017-03-18T23:47:28.946Z,2.50
2017-03-18T23:48:27.497Z,2.45
2017-03-18T23:49:26.201Z,2.55
2017-03-18T23:50:27.579Z,2.47
2017-03-18T23:51:27.079Z,2.30
2017-03-18T23:52:33.941Z,2.22
2017-03-18T23:53:49.451Z,2.62
2017-03-18T23:54:51.523Z,2.30
2017-03-18T23:55:51.216Z,2.40
2017-03-18T23:56:56.972Z,3.23
2017-03-18T23:58:31.259Z,2.30
2017-03-18T23:59:32.477Z,2.38
